Airfield :
LOGIN :

Register | Disclaimer

   EN    FR    IT 

 










Legend :    VFR   Marginal VFR   IFR   Intensive IFR   Very Intensive IFR
Visi :
Ceiling :
>= 8 km
>= 3000ft
5 to 8 km
1000 to 3000 ft
1500m to 5 km
500 to 1000 ft
800 to 1500m
200 to 500 ft
< 800m
< 200 ft
Symbols :   Thunderstorms  Fog  Heavy snow  Heavy precipitations  Wind > 20 kt
SIGMETs :     Misc.  Thunderstorms  Icing  Turbulence  Mountain Waves  Volcanic Ashes







- Airport Elevation : 156 ft
- IATA code : OMO


LQMO - Mostar

CURRENT METAR :
  • 252100Z 18003KT 140V210 CAVOK 13/10 Q1016

EXPIRED METARs :
  • 252000Z 12003KT CAVOK 14/10 Q1017
  • 251900Z 13003KT 090V180 CAVOK 15/10 Q1016

TAF TAF LQMO
Valid from the 25 at 18:00 until the 26 at 18:00 UTC


251700Z 2518/2618 VRB02KT CAVOK TX19/2613Z TN06/2606Z
TEMPO 2610/2618 RA
PROB40
TEMPO 2610/2613 TS FEW035CB BKN050
BECMG 2612/2614 02015KT
PROB40
TEMPO 2615/2618 02015G25KT
No reported NOTAMs for that airfield.



MET'MAP, your aeronautical weather chart ! - Copyright ORBIFLY December 2007 - Disclaimer

ORBIFLY MET'MAP TEAM :

Programming & Development : Alexandra Zaïnal
Concept & Development : Baudouin d'Aumeries
Co-Development & Prog : Marc-Olivier Méhu
Technical & hardware support : Manuel Goepfert

Contact : metmap@orbifly.com




SOURCES & CREDITS :

   NOAA